Time;durP1;ratioP1;P1;durP2;ratioP2;P2;SDS_P1;SDS_P2;PMS_P1;PMS_P2;Temp;Humidity;BMP_temperature;BMP_pressure;BME280_temperature;BME280_humidity;BME280_pressure;Samples;Min_cycle;Max_cycle;Signal;HPM_P1;HPM_P2
2023/08/13 00:45:30;;;;;;;50.75;47.03;;;;;;;;;;4855238;29;20196;-96
2023/08/13 02:20:10;;;;;;;;;;;;;;;;;;;;;
2023/08/13 06:34:46;;;;;;;425.27;396.23;;;;;;;;;;4851834;29;20066;-96
2023/08/13 06:37:53;;;;;;;392.40;367.25;;;;;;;;;;4850974;29;20055;-95
2023/08/13 06:40:19;;;;;;;393.00;366.90;;;;;;;;;;4827356;29;20022;-95
2023/08/13 06:51:21;;;;;;;330.63;309.05;;;;;;;;;;5075743;23;20078;-95
2023/08/13 09:32:56;;;;;;;262.45;244.70;;;;;;;;;;4884352;29;20076;-96
2023/08/13 09:35:22;;;;;;;233.75;219.70;;;;;;;;;;4872219;29;20627;-95
2023/08/13 09:55:38;;;;;;;279.90;262.85;;;;;;;;;;4955576;23;20079;-96
2023/08/13 09:58:17;;;;;;;359.95;336.55;;;;;;;;;;4890174;23;20124;-96
2023/08/13 10:00:44;;;;;;;336.08;315.67;;;;;;;;;;4863615;29;20495;-96
2023/08/13 10:03:10;;;;;;;326.70;306.65;;;;;;;;;;4848638;29;20037;-96
2023/08/13 10:05:42;;;;;;;338.58;317.63;;;;;;;;;;4966693;23;20087;-92
2023/08/13 10:17:18;;;;;;;326.55;305.58;;;;;;;;;;5672045;23;20045;-96
2023/08/13 10:41:58;;;;;;;395.67;369.65;;;;;;;;;;4856609;29;20060;-96
2023/08/13 11:33:15;;;;;;;412.48;384.77;;;;;;;;;;4764913;30;20075;-95
2023/08/13 11:35:41;;;;;;;391.15;364.58;;;;;;;;;;4756050;30;20032;-95
2023/08/13 11:38:17;;;;;;;434.35;403.40;;;;;;;;;;4814749;29;20053;-96
2023/08/13 11:40:43;;;;;;;427.70;399.52;;;;;;;;;;4847419;29;20118;-96
2023/08/13 11:43:35;;;;;;;373.75;350.23;;;;;;;;;;4848480;29;20100;-96
2023/08/13 11:46:38;;;;;;;359.42;337.08;;;;;;;;;;4848643;29;20050;-96
2023/08/13 11:49:22;;;;;;;407.67;380.02;;;;;;;;;;4914348;24;20517;-96
2023/08/13 11:54:44;;;;;;;368.00;344.95;;;;;;;;;;5048317;23;20069;-95
2023/08/13 11:57:15;;;;;;;378.60;354.35;;;;;;;;;;4869355;29;20010;-96
2023/08/13 12:04:55;;;;;;;337.52;317.00;;;;;;;;;;5397244;23;20073;-96
2023/08/13 12:07:39;;;;;;;;;;;;;;;;;;;;;
2023/08/13 12:10:41;;;;;;;328.65;308.38;;;;;;;;;;4882906;29;20128;-96
2023/08/13 12:13:33;;;;;;;305.17;286.80;;;;;;;;;;4852989;29;20053;-96
2023/08/13 12:16:35;;;;;;;272.90;256.92;;;;;;;;;;4857646;29;20102;-96
2023/08/13 12:22:08;;;;;;;300.08;282.25;;;;;;;;;;5010558;23;20594;-96
2023/08/13 12:24:34;;;;;;;336.95;316.08;;;;;;;;;;5663884;23;20083;-95
2023/08/13 12:27:13;;;;;;;;;;;;;;;;;;;;;
2023/08/13 12:33:10;;;;;;;344.42;322.85;;;;;;;;;;5516477;23;20069;-96
2023/08/13 12:35:25;;;;;;;;;;;;;;;;;;;;;
2023/08/13 12:38:03;;;;;;;325.55;306.00;;;;;;;;;;4877407;29;20060;-96
2023/08/13 12:40:40;;;;;;;328.38;307.98;;;;;;;;;;4871317;29;20033;-93
2023/08/13 12:43:06;;;;;;;333.17;312.92;;;;;;;;;;4870703;29;20040;-95
2023/08/13 12:48:20;;;;;;;364.88;340.10;;;;;;;;;;4872524;29;20051;-95
2023/08/13 12:50:46;;;;;;;357.30;331.65;;;;;;;;;;4866644;29;20033;-94
2023/08/13 12:53:13;;;;;;;352.65;330.10;;;;;;;;;;4870683;29;20487;-95
2023/08/13 12:55:39;;;;;;;327.58;306.83;;;;;;;;;;4869763;29;20060;-95
2023/08/13 12:58:05;;;;;;;288.33;271.48;;;;;;;;;;4866522;29;20100;-95
2023/08/13 13:00:31;;;;;;;306.52;288.30;;;;;;;;;;4926745;23;20041;-96
2023/08/13 13:03:00;;;;;;;352.88;329.90;;;;;;;;;;4869165;29;20037;-96
2023/08/13 13:08:30;;;;;;;371.98;348.42;;;;;;;;;;4790496;30;20106;-96
2023/08/13 13:10:59;;;;;;;361.45;339.17;;;;;;;;;;4852648;29;20079;-95
2023/08/13 13:13:26;;;;;;;337.17;316.95;;;;;;;;;;4868310;29;20013;-96
2023/08/13 13:15:52;;;;;;;341.65;320.98;;;;;;;;;;4850140;29;20037;-96
2023/08/13 13:18:18;;;;;;;308.52;289.92;;;;;;;;;;4868175;29;20124;-96
2023/08/13 13:20:44;;;;;;;332.17;312.23;;;;;;;;;;4865299;29;20033;-96
2023/08/13 13:23:10;;;;;;;337.67;317.35;;;;;;;;;;4855029;29;20053;-96
2023/08/13 13:25:38;;;;;;;366.05;342.88;;;;;;;;;;4863802;29;20037;-96
2023/08/13 13:28:04;;;;;;;350.13;327.63;;;;;;;;;;4865788;29;20025;-96
2023/08/13 13:30:33;;;;;;;348.17;325.88;;;;;;;;;;4847203;29;20535;-96
2023/08/13 13:33:09;;;;;;;375.88;352.23;;;;;;;;;;4828222;29;20148;-96
2023/08/13 13:35:35;;;;;;;388.92;362.40;;;;;;;;;;4831540;29;20042;-95
2023/08/13 13:38:02;;;;;;;384.77;359.77;;;;;;;;;;4840589;29;20025;-96
2023/08/13 13:40:28;;;;;;;360.27;337.98;;;;;;;;;;4816073;29;20046;-96
2023/08/13 13:42:57;;;;;;;344.38;322.77;;;;;;;;;;4810175;29;20050;-96
2023/08/13 13:45:33;;;;;;;357.67;335.85;;;;;;;;;;4872317;24;20085;-96
2023/08/13 13:48:01;;;;;;;336.13;316.13;;;;;;;;;;5000682;23;20061;-96
2023/08/13 13:50:39;;;;;;;373.63;349.27;;;;;;;;;;4865714;29;20056;-96
2023/08/13 13:53:05;;;;;;;361.55;339.35;;;;;;;;;;4868090;29;20040;-96
2023/08/13 13:58:20;;;;;;;346.65;325.30;;;;;;;;;;4907043;23;20891;-96
2023/08/13 14:00:49;;;;;;;345.25;323.38;;;;;;;;;;4865521;29;20471;-96
2023/08/13 14:03:17;;;;;;;345.50;322.92;;;;;;;;;;4867694;29;20037;-96
2023/08/13 14:05:44;;;;;;;346.70;325.65;;;;;;;;;;4865047;29;20033;-96
2023/08/13 14:08:13;;;;;;;337.55;316.67;;;;;;;;;;4866739;29;20056;-96
2023/08/13 14:10:39;;;;;;;373.50;350.13;;;;;;;;;;4866508;29;20029;-96
2023/08/13 14:13:05;;;;;;;360.45;337.95;;;;;;;;;;4868477;29;20041;-96
2023/08/13 14:15:34;;;;;;;344.00;323.27;;;;;;;;;;4869761;29;20061;-96
2023/08/13 14:18:04;;;;;;;338.13;317.15;;;;;;;;;;4866995;29;20025;-96
2023/08/13 14:20:31;;;;;;;384.95;360.15;;;;;;;;;;4866505;29;20036;-96
2023/08/13 14:23:03;;;;;;;358.13;334.00;;;;;;;;;;4860173;29;20030;-96
2023/08/13 14:25:31;;;;;;;385.17;360.67;;;;;;;;;;4853793;29;20037;-96
2023/08/13 14:28:08;;;;;;;376.85;353.27;;;;;;;;;;4852471;29;20029;-96
2023/08/13 14:30:34;;;;;;;352.83;329.50;;;;;;;;;;4851754;29;20033;-95
2023/08/13 14:33:00;;;;;;;349.35;326.63;;;;;;;;;;4851175;29;20038;-96
2023/08/13 14:35:32;;;;;;;403.60;377.13;;;;;;;;;;4915274;23;20038;-96
2023/08/13 14:37:58;;;;;;;375.58;351.08;;;;;;;;;;4850873;29;20479;-96
2023/08/13 14:40:27;;;;;;;369.73;347.05;;;;;;;;;;4850300;29;20102;-96
2023/08/13 14:42:53;;;;;;;392.77;366.55;;;;;;;;;;4851790;29;20124;-96
2023/08/13 14:45:21;;;;;;;401.40;375.15;;;;;;;;;;4851847;29;20491;-96
2023/08/13 14:47:48;;;;;;;327.45;307.88;;;;;;;;;;4857346;29;20040;-96
2023/08/13 14:50:14;;;;;;;344.98;323.13;;;;;;;;;;4867493;29;20372;-96
2023/08/13 14:52:40;;;;;;;338.80;317.83;;;;;;;;;;4868553;29;20051;-96
2023/08/13 14:55:15;;;;;;;351.17;327.35;;;;;;;;;;4877810;29;20036;-95
2023/08/13 14:57:44;;;;;;;375.13;350.92;;;;;;;;;;4872779;29;20068;-96
2023/08/13 15:00:11;;;;;;;374.63;350.77;;;;;;;;;;4855408;29;20080;-95
2023/08/13 15:02:37;;;;;;;366.65;343.77;;;;;;;;;;4850093;29;20033;-96
2023/08/13 15:05:20;;;;;;;342.80;321.98;;;;;;;;;;4853236;29;20029;-96
2023/08/13 15:07:53;;;;;;;382.77;357.48;;;;;;;;;;4853497;29;20386;-96
2023/08/13 15:10:22;;;;;;;408.52;380.20;;;;;;;;;;4850143;29;20063;-96
2023/08/13 15:12:48;;;;;;;383.83;358.48;;;;;;;;;;4851432;29;20058;-96
2023/08/13 15:15:17;;;;;;;410.02;383.10;;;;;;;;;;4850011;29;20032;-95
2023/08/13 15:17:43;;;;;;;375.63;351.67;;;;;;;;;;4851529;29;20030;-96
2023/08/13 15:20:10;;;;;;;368.15;344.75;;;;;;;;;;4851509;29;20040;-95
2023/08/13 15:22:44;;;;;;;375.15;350.48;;;;;;;;;;4935532;24;20041;-95
2023/08/13 15:25:13;;;;;;;352.75;330.20;;;;;;;;;;4911853;24;20062;-96
2023/08/13 15:27:39;;;;;;;361.60;338.92;;;;;;;;;;4849930;29;20029;-96
2023/08/13 15:30:06;;;;;;;381.08;356.85;;;;;;;;;;4851776;29;20125;-96
2023/08/13 15:32:36;;;;;;;413.75;385.83;;;;;;;;;;4850018;29;20037;-96
2023/08/13 15:35:03;;;;;;;380.20;355.25;;;;;;;;;;4847431;29;20057;-96
2023/08/13 15:37:29;;;;;;;399.10;372.30;;;;;;;;;;4851397;29;20057;-96
2023/08/13 15:39:55;;;;;;;376.98;351.98;;;;;;;;;;4849960;29;20026;-96
2023/08/13 15:42:21;;;;;;;533.22;479.52;;;;;;;;;;4851258;29;20105;-96
2023/08/13 15:44:50;;;;;;;445.17;410.38;;;;;;;;;;4848901;29;20049;-96
2023/08/13 15:47:29;;;;;;;364.30;341.92;;;;;;;;;;4850755;29;20078;-96
2023/08/13 15:49:55;;;;;;;437.05;406.95;;;;;;;;;;4850880;29;20033;-96
2023/08/13 15:52:28;;;;;;;457.15;425.15;;;;;;;;;;4875465;23;20168;-96
2023/08/13 15:54:54;;;;;;;442.52;413.67;;;;;;;;;;4870140;29;20077;-95
2023/08/13 15:57:29;;;;;;;385.27;360.45;;;;;;;;;;4872046;29;20035;-96
2023/08/13 15:59:58;;;;;;;399.38;374.10;;;;;;;;;;4866605;29;20037;-96
2023/08/13 16:02:24;;;;;;;362.08;339.80;;;;;;;;;;4867482;29;20062;-95
2023/08/13 16:05:00;;;;;;;359.77;336.35;;;;;;;;;;4867193;29;20123;-96
2023/08/13 16:07:29;;;;;;;385.65;361.05;;;;;;;;;;4873109;29;20033;-95
2023/08/13 16:09:58;;;;;;;429.75;401.70;;;;;;;;;;4936645;23;20037;-95
2023/08/13 16:12:27;;;;;;;464.30;432.40;;;;;;;;;;4898288;23;20057;-96
2023/08/13 16:23:08;;;;;;;437.55;408.67;;;;;;;;;;5246524;23;20533;-96
2023/08/13 16:25:45;;;;;;;399.88;374.73;;;;;;;;;;4931642;23;20033;-96
2023/08/13 16:31:34;;;;;;;466.77;433.15;;;;;;;;;;5376706;23;20060;-96
2023/08/13 16:34:01;;;;;;;449.30;419.73;;;;;;;;;;4865967;29;20037;-95
2023/08/13 16:36:31;;;;;;;441.30;411.90;;;;;;;;;;4866782;29;20025;-96
2023/08/13 16:39:12;;;;;;;486.52;453.63;;;;;;;;;;4865939;29;20443;-96
2023/08/13 16:42:12;;;;;;;439.85;410.90;;;;;;;;;;4852953;29;20033;-93
2023/08/13 16:44:42;;;;;;;411.65;385.67;;;;;;;;;;4857536;29;20034;-96
2023/08/13 16:47:11;;;;;;;472.67;441.52;;;;;;;;;;4847401;29;20467;-94
2023/08/13 16:49:43;;;;;;;449.52;420.02;;;;;;;;;;4860763;29;20057;-94
2023/08/13 16:52:22;;;;;;;441.55;412.75;;;;;;;;;;4870050;29;20507;-96
2023/08/13 16:55:13;;;;;;;507.92;473.27;;;;;;;;;;4900727;24;20080;-95
2023/08/13 17:00:42;;;;;;;511.48;477.27;;;;;;;;;;5551643;23;20040;-96
2023/08/13 17:03:23;;;;;;;443.63;415.40;;;;;;;;;;4876968;29;20074;-94
2023/08/13 17:14:09;;;;;;;453.92;423.95;;;;;;;;;;5562986;23;20053;-96
2023/08/13 17:16:44;;;;;;;504.70;470.23;;;;;;;;;;4871755;29;20037;-96
2023/08/13 17:37:53;;;;;;;524.95;488.80;;;;;;;;;;4866956;27;20045;-96
2023/08/13 17:40:37;;;;;;;477.73;446.00;;;;;;;;;;4836577;29;20065;-95
2023/08/13 17:46:25;;;;;;;472.42;441.70;;;;;;;;;;5183916;23;20056;-96
2023/08/13 17:51:27;;;;;;;519.40;484.73;;;;;;;;;;5889298;23;20272;-94
2023/08/13 18:09:56;;;;;;;494.58;461.75;;;;;;;;;;4678966;23;20121;-95
2023/08/13 18:29:32;;;;;;;478.60;447.70;;;;;;;;;;5702588;24;20068;-95
2023/08/13 18:35:20;;;;;;;529.50;494.75;;;;;;;;;;4954258;23;20136;-93
2023/08/13 18:52:44;;;;;;;500.05;467.67;;;;;;;;;;5422680;24;20051;-94
2023/08/13 18:55:19;;;;;;;481.38;450.67;;;;;;;;;;4875927;29;20041;-95
